createdAt,value
2018-01-20T00:01:27.660Z,2.20
2018-01-20T00:03:55.114Z,2.40
2018-01-20T00:06:22.570Z,2.53
2018-01-20T00:08:50.046Z,1.87
2018-01-20T00:11:29.327Z,2.60
2018-01-20T00:13:56.786Z,3.40
2018-01-20T00:16:24.246Z,2.37
2018-01-20T00:18:51.705Z,1.97
2018-01-20T00:21:19.185Z,2.00
2018-01-20T00:23:46.642Z,2.80
2018-01-20T00:26:31.589Z,2.20
2018-01-20T00:28:59.046Z,2.93
2018-01-20T00:31:26.501Z,2.97
2018-01-20T00:33:53.986Z,2.13
2018-01-20T00:36:21.442Z,2.57
2018-01-20T00:38:48.902Z,2.07
2018-01-20T00:41:16.367Z,2.53
2018-01-20T00:43:43.831Z,2.10
2018-01-20T00:46:11.291Z,2.00
2018-01-20T00:48:38.762Z,2.03
2018-01-20T00:51:06.978Z,2.20
2018-01-20T00:53:34.439Z,1.57
2018-01-20T00:56:01.929Z,1.90
2018-01-20T00:58:29.398Z,2.30
2018-01-20T01:00:57.619Z,1.80
2018-01-20T01:03:25.082Z,2.57
2018-01-20T01:05:52.554Z,1.63
2018-01-20T01:08:20.007Z,1.93
2018-01-20T01:10:47.478Z,2.13
2018-01-20T01:13:14.998Z,1.93
2018-01-20T01:15:42.457Z,2.10
2018-01-20T01:18:09.954Z,2.47
2018-01-20T01:20:37.415Z,2.50
2018-01-20T01:23:04.874Z,2.60
2018-01-20T01:25:32.342Z,2.23
2018-01-20T01:28:00.578Z,2.30
2018-01-20T01:30:28.051Z,2.20
2018-01-20T01:32:55.510Z,2.07
2018-01-20T01:35:22.969Z,2.50
2018-01-20T01:37:50.421Z,2.00
2018-01-20T01:40:17.892Z,2.30
2018-01-20T01:42:45.342Z,2.60
2018-01-20T01:45:12.818Z,2.83
2018-01-20T01:47:41.054Z,1.70
2018-01-20T01:50:08.515Z,2.27
2018-01-20T01:52:35.993Z,2.67
2018-01-20T01:55:03.463Z,1.90
2018-01-20T01:57:31.691Z,1.70
2018-01-20T01:59:59.141Z,2.37
2018-01-20T02:02:26.625Z,1.80
2018-01-20T02:04:54.078Z,1.83
2018-01-20T02:07:21.542Z,2.67
2018-01-20T02:09:49.015Z,2.20
2018-01-20T02:12:17.235Z,2.10
2018-01-20T02:14:44.689Z,2.83
2018-01-20T02:17:12.167Z,1.90
2018-01-20T02:19:39.629Z,2.27
2018-01-20T02:22:07.096Z,2.73
2018-01-20T02:24:34.566Z,2.63
2018-01-20T02:27:02.023Z,1.97
2018-01-20T02:29:29.474Z,2.40
2018-01-20T02:31:56.942Z,3.10
2018-01-20T02:34:25.166Z,2.50
2018-01-20T02:36:52.632Z,1.87
2018-01-20T02:39:20.098Z,2.40
2018-01-20T02:41:47.558Z,2.00
2018-01-20T02:44:15.011Z,2.20
2018-01-20T02:46:42.486Z,3.13
2018-01-20T02:49:09.979Z,3.20
2018-01-20T02:51:37.440Z,3.30
2018-01-20T02:54:04.921Z,3.20
2018-01-20T02:56:32.375Z,4.07
2018-01-20T02:58:59.829Z,5.03
2018-01-20T03:01:27.298Z,5.30
2018-01-20T03:03:55.523Z,4.50
2018-01-20T03:06:23.747Z,5.57
2018-01-20T03:08:51.223Z,4.80
2018-01-20T03:11:18.678Z,5.63
2018-01-20T03:13:46.130Z,5.53
2018-01-20T03:16:13.607Z,5.53
2018-01-20T03:18:41.672Z,5.10
2018-01-20T03:21:09.138Z,6.93
2018-01-20T03:23:36.611Z,6.10
2018-01-20T03:26:04.826Z,5.03
2018-01-20T03:28:32.286Z,5.23
2018-01-20T03:30:59.765Z,5.10
2018-01-20T03:33:27.233Z,6.70
2018-01-20T03:35:54.707Z,5.13
2018-01-20T03:38:22.938Z,6.00
2018-01-20T03:40:50.410Z,5.90
2018-01-20T03:43:17.883Z,6.40
2018-01-20T03:45:45.346Z,6.40
2018-01-20T03:48:13.573Z,6.40
2018-01-20T03:50:41.062Z,7.13
2018-01-20T03:53:08.532Z,6.30
2018-01-20T03:55:35.998Z,5.90
2018-01-20T03:58:04.234Z,6.63
2018-01-20T04:00:31.705Z,5.40
2018-01-20T04:02:59.170Z,6.03
2018-01-20T04:05:26.696Z,5.87
2018-01-20T04:07:54.131Z,5.57
2018-01-20T04:10:21.618Z,5.53
2018-01-20T04:12:49.088Z,6.03
2018-01-20T04:15:16.558Z,8.20
2018-01-20T04:17:44.026Z,7.23
2018-01-20T04:20:12.288Z,7.43
2018-01-20T04:22:39.756Z,6.80
2018-01-20T04:25:07.990Z,7.43
2018-01-20T04:27:35.463Z,6.87
2018-01-20T04:30:02.942Z,7.10
2018-01-20T04:32:30.410Z,6.70
2018-01-20T04:34:58.647Z,6.70
2018-01-20T04:37:26.121Z,6.30
2018-01-20T04:39:53.582Z,7.77
2018-01-20T04:42:21.042Z,6.20
2018-01-20T04:44:48.506Z,6.30
2018-01-20T04:47:16.745Z,7.17
2018-01-20T04:49:44.223Z,6.23
2018-01-20T04:52:11.699Z,6.90
2018-01-20T04:54:39.935Z,5.97
2018-01-20T04:57:07.446Z,6.80
2018-01-20T04:59:34.922Z,7.17
2018-01-20T05:02:02.394Z,6.40
2018-01-20T05:04:29.904Z,5.93
2018-01-20T05:06:58.141Z,5.40
2018-01-20T05:09:25.614Z,5.23
2018-01-20T05:11:53.088Z,5.37
2018-01-20T05:14:21.324Z,6.67
2018-01-20T05:16:48.814Z,8.07
2018-01-20T05:19:17.050Z,5.90
2018-01-20T05:21:44.518Z,6.33
2018-01-20T05:24:11.991Z,6.20
2018-01-20T05:26:39.462Z,6.23
2018-01-20T05:29:07.715Z,6.27
2018-01-20T05:31:35.181Z,7.43
2018-01-20T05:34:02.651Z,6.80
2018-01-20T05:36:30.124Z,8.30
2018-01-20T05:38:58.379Z,6.70
2018-01-20T05:41:25.830Z,6.30
2018-01-20T05:43:53.303Z,6.30
2018-01-20T05:46:21.553Z,8.03
2018-01-20T05:48:49.048Z,6.40
2018-01-20T05:51:16.524Z,6.10
2018-01-20T05:53:43.983Z,6.83
2018-01-20T05:56:11.446Z,8.20
2018-01-20T05:58:38.913Z,6.60
2018-01-20T06:01:06.382Z,7.90
2018-01-20T06:03:33.867Z,9.40
2018-01-20T06:06:01.338Z,6.23
2018-01-20T06:08:29.582Z,5.70
2018-01-20T06:10:57.058Z,7.60
2018-01-20T06:13:24.523Z,6.60
2018-01-20T06:15:52.763Z,6.57
2018-01-20T06:18:20.215Z,6.97
2018-01-20T06:20:47.686Z,7.77
2018-01-20T06:23:15.158Z,7.60
2018-01-20T06:25:43.386Z,6.30
2018-01-20T06:28:10.936Z,8.40
2018-01-20T06:30:38.384Z,7.77
2018-01-20T06:33:05.854Z,8.43
2018-01-20T06:35:33.346Z,7.40
2018-01-20T06:38:00.816Z,7.23
2018-01-20T06:40:28.274Z,8.60
2018-01-20T06:42:55.743Z,9.70
2018-01-20T06:45:23.982Z,9.40
2018-01-20T06:47:51.456Z,10.30
2018-01-20T06:50:18.948Z,11.90
2018-01-20T06:52:46.434Z,10.40
2018-01-20T06:55:13.916Z,10.77
2018-01-20T06:57:41.603Z,12.10
2018-01-20T07:00:09.062Z,11.00
2018-01-20T07:02:36.670Z,10.90
2018-01-20T07:05:04.407Z,11.77
2018-01-20T07:07:31.914Z,13.30
2018-01-20T07:09:59.595Z,8.50
2018-01-20T07:12:27.854Z,11.40
2018-01-20T07:14:55.358Z,12.63
2018-01-20T07:17:22.838Z,10.63
2018-01-20T07:19:50.314Z,11.63
2018-01-20T07:22:17.787Z,10.47
2018-01-20T07:24:45.248Z,10.43
2018-01-20T07:27:12.702Z,11.83
2018-01-20T07:29:40.178Z,11.00
2018-01-20T07:32:08.403Z,12.20
2018-01-20T07:34:35.864Z,11.47
2018-01-20T07:37:03.345Z,10.80
2018-01-20T07:39:30.806Z,12.17
2018-01-20T07:41:58.275Z,12.73
2018-01-20T07:44:26.518Z,11.23
2018-01-20T07:46:53.982Z,10.87
2018-01-20T07:49:21.443Z,13.10
2018-01-20T07:51:48.918Z,12.33
2018-01-20T07:54:17.154Z,12.83
2018-01-20T07:56:44.730Z,12.17
2018-01-20T07:59:12.215Z,12.20
2018-01-20T08:01:40.454Z,12.63
2018-01-20T08:04:07.915Z,12.40
2018-01-20T08:06:35.400Z,10.50
2018-01-20T08:09:02.858Z,11.60
2018-01-20T08:11:31.090Z,10.77
2018-01-20T08:13:58.573Z,11.83
2018-01-20T08:16:26.042Z,10.37
2018-01-20T08:18:53.494Z,10.23
2018-01-20T08:21:20.974Z,9.70
2018-01-20T08:23:48.430Z,9.77
2018-01-20T08:26:15.894Z,10.13
2018-01-20T08:28:44.149Z,8.97
2018-01-20T08:31:11.662Z,8.70
2018-01-20T08:33:39.120Z,10.17
2018-01-20T08:36:06.597Z,9.53
2018-01-20T08:38:34.054Z,9.13
2018-01-20T08:41:01.519Z,9.40
2018-01-20T08:43:28.998Z,8.53
2018-01-20T08:45:56.477Z,8.30
2018-01-20T08:48:23.955Z,8.20
2018-01-20T08:50:51.429Z,8.27
2018-01-20T08:53:18.894Z,8.40
2018-01-20T08:55:46.356Z,7.30
2018-01-20T08:58:13.826Z,8.60
2018-01-20T09:00:41.294Z,7.40
2018-01-20T09:03:09.538Z,8.77
2018-01-20T09:05:37.015Z,8.83
2018-01-20T09:08:04.466Z,9.20
2018-01-20T09:10:31.977Z,8.47
2018-01-20T09:12:59.454Z,8.87
2018-01-20T09:15:26.911Z,8.93
2018-01-20T09:17:55.126Z,9.60
2018-01-20T09:20:23.366Z,9.03
2018-01-20T09:22:50.819Z,8.07
2018-01-20T09:25:18.279Z,8.53
2018-01-20T09:27:45.759Z,8.80
2018-01-20T09:30:13.226Z,8.87
2018-01-20T09:32:41.456Z,8.63
2018-01-20T09:35:08.982Z,8.73
2018-01-20T09:37:36.467Z,9.17
2018-01-20T09:40:04.042Z,9.63
2018-01-20T09:42:31.523Z,9.17
2018-01-20T09:44:58.990Z,7.90
2018-01-20T09:47:27.222Z,8.67
2018-01-20T09:49:55.462Z,9.80
2018-01-20T09:52:22.956Z,10.50
2018-01-20T09:54:52.026Z,10.93
2018-01-20T09:57:19.494Z,11.40
2018-01-20T09:59:46.958Z,10.13
2018-01-20T10:02:14.425Z,11.57
2018-01-20T10:04:41.923Z,11.50
2018-01-20T10:07:10.175Z,12.73
2018-01-20T10:09:37.635Z,12.17
2018-01-20T10:12:05.101Z,12.90
2018-01-20T10:14:33.343Z,12.07
2018-01-20T10:17:00.798Z,12.30
2018-01-20T10:19:28.275Z,12.60
2018-01-20T10:21:55.745Z,14.63
2018-01-20T10:24:23.202Z,13.80
2018-01-20T10:26:51.452Z,13.13
2018-01-20T10:29:18.909Z,14.67
2018-01-20T10:31:46.383Z,16.00
2018-01-20T10:34:13.856Z,15.40
2018-01-20T10:36:42.079Z,16.00
2018-01-20T10:39:09.640Z,17.20
2018-01-20T10:41:37.115Z,15.93
2018-01-20T10:44:04.575Z,18.50
2018-01-20T10:46:32.046Z,20.20
2018-01-20T10:48:59.535Z,18.90
2018-01-20T10:51:26.998Z,17.33
2018-01-20T10:53:54.465Z,16.43
2018-01-20T10:56:21.938Z,17.73
2018-01-20T10:58:49.393Z,19.67
2018-01-20T11:01:16.855Z,19.30
2018-01-20T11:03:44.330Z,20.87
2018-01-20T11:06:19.318Z,18.83
2018-01-20T11:08:46.798Z,20.60
2018-01-20T11:11:14.328Z,19.07
2018-01-20T11:13:41.807Z,20.57
2018-01-20T11:16:09.296Z,21.23
2018-01-20T11:18:36.772Z,20.17
2018-01-20T11:21:04.998Z,18.40
2018-01-20T11:23:32.474Z,18.90
2018-01-20T11:25:59.967Z,23.03
2018-01-20T11:28:28.198Z,22.50
2018-01-20T11:30:55.675Z,19.37
2018-01-20T11:33:23.296Z,20.53
2018-01-20T11:35:50.988Z,21.47
2018-01-20T11:38:36.396Z,19.30
2018-01-20T11:41:04.618Z,22.13
2018-01-20T11:43:32.082Z,19.73
2018-01-20T11:45:59.550Z,19.13
2018-01-20T11:48:27.025Z,20.80
2018-01-20T11:50:54.494Z,20.57
2018-01-20T11:53:21.957Z,20.00
2018-01-20T11:55:50.199Z,20.97
2018-01-20T11:58:17.662Z,21.70
2018-01-20T12:00:45.139Z,22.80
2018-01-20T12:03:12.603Z,22.03
2018-01-20T12:05:40.847Z,22.47
2018-01-20T12:08:08.315Z,22.83
2018-01-20T12:10:35.782Z,22.60
2018-01-20T12:13:03.294Z,22.70
2018-01-20T12:15:30.779Z,20.87
2018-01-20T12:17:58.254Z,21.00
2018-01-20T12:20:26.650Z,21.10
2018-01-20T12:22:54.887Z,21.73
2018-01-20T12:25:23.120Z,20.33
2018-01-20T12:27:50.593Z,22.53
2018-01-20T12:30:18.069Z,21.47
2018-01-20T12:32:45.531Z,20.83
2018-01-20T12:35:12.990Z,21.90
2018-01-20T12:37:40.462Z,21.30
2018-01-20T12:40:07.913Z,22.33
2018-01-20T12:42:35.378Z,21.60
2018-01-20T12:45:02.849Z,22.50
2018-01-20T12:47:31.078Z,21.90
2018-01-20T12:49:58.543Z,21.70
2018-01-20T12:52:26.014Z,21.53
2018-01-20T12:54:53.509Z,22.50
2018-01-20T12:57:20.944Z,20.40
2018-01-20T12:59:49.202Z,20.43
2018-01-20T13:02:16.670Z,21.33
2018-01-20T13:04:44.139Z,25.23
2018-01-20T13:07:12.378Z,22.37
2018-01-20T13:09:39.845Z,23.80
2018-01-20T13:12:07.315Z,23.07
2018-01-20T13:14:34.806Z,23.53
2018-01-20T13:17:02.264Z,23.50
2018-01-20T13:19:29.714Z,24.37
2018-01-20T13:21:57.196Z,23.40
2018-01-20T13:24:24.682Z,22.43
2018-01-20T13:26:52.154Z,22.47
2018-01-20T13:29:19.646Z,21.60
2018-01-20T13:31:47.115Z,22.67
2018-01-20T13:34:15.326Z,20.03
2018-01-20T13:36:42.838Z,20.03
2018-01-20T13:39:10.357Z,19.57
2018-01-20T13:41:37.806Z,21.93
2018-01-20T13:44:06.786Z,22.57
2018-01-20T13:46:34.249Z,22.23
2018-01-20T13:49:01.739Z,25.37
2018-01-20T13:51:29.978Z,24.43
2018-01-20T13:53:57.440Z,20.37
2018-01-20T13:56:24.902Z,18.50
2018-01-20T13:58:52.453Z,19.07
2018-01-20T14:01:19.903Z,18.07
2018-01-20T14:03:47.361Z,17.87
2018-01-20T14:06:14.850Z,13.97
2018-01-20T14:08:43.090Z,14.10
2018-01-20T14:11:10.612Z,12.23
2018-01-20T14:13:38.092Z,13.47
2018-01-20T14:16:05.545Z,11.00
2018-01-20T14:18:33.002Z,10.47
2018-01-20T14:21:00.473Z,11.33
2018-01-20T14:23:27.927Z,9.60
2018-01-20T14:25:55.383Z,9.93
2018-01-20T14:28:22.930Z,10.20
2018-01-20T14:30:50.390Z,10.17
2018-01-20T14:33:17.889Z,10.27
2018-01-20T14:35:45.341Z,9.80
2018-01-20T14:38:12.790Z,10.37
2018-01-20T14:40:40.284Z,9.20
2018-01-20T14:43:08.506Z,11.10
2018-01-20T14:45:35.974Z,10.60
2018-01-20T14:48:03.431Z,9.73
2018-01-20T14:50:30.931Z,8.77
2018-01-20T14:52:58.390Z,10.27
2018-01-20T14:55:25.962Z,10.23
2018-01-20T14:57:53.430Z,11.07
2018-01-20T15:00:20.886Z,10.97
2018-01-20T15:02:48.354Z,10.30
2018-01-20T15:05:15.822Z,10.20
2018-01-20T15:07:43.273Z,10.67
2018-01-20T15:10:10.746Z,11.77
2018-01-20T15:12:38.222Z,11.30
2018-01-20T15:15:06.494Z,10.10
2018-01-20T15:17:34.939Z,10.03
2018-01-20T15:20:02.451Z,11.00
2018-01-20T15:22:30.686Z,9.60
2018-01-20T15:24:58.150Z,9.77
2018-01-20T15:27:25.627Z,9.20
2018-01-20T15:29:53.862Z,9.27
2018-01-20T15:32:21.342Z,11.33
2018-01-20T15:34:48.815Z,9.87
2018-01-20T15:37:17.059Z,10.83
2018-01-20T15:39:44.531Z,10.67
2018-01-20T15:42:11.994Z,11.80
2018-01-20T15:44:39.477Z,10.30
2018-01-20T15:47:06.949Z,11.70
2018-01-20T15:49:34.416Z,11.80
2018-01-20T15:52:01.880Z,11.03
2018-01-20T15:54:29.349Z,11.80
2018-01-20T15:56:56.859Z,11.43
2018-01-20T15:59:24.287Z,10.77
2018-01-20T16:01:51.767Z,10.93
2018-01-20T16:04:19.994Z,9.90
2018-01-20T16:06:47.470Z,11.80
2018-01-20T16:09:14.951Z,11.17
2018-01-20T16:11:43.214Z,11.90
2018-01-20T16:14:13.573Z,10.20
2018-01-20T16:16:41.175Z,10.70
2018-01-20T16:19:08.853Z,10.03
2018-01-20T16:21:36.580Z,10.50
2018-01-20T16:24:04.870Z,9.90
2018-01-20T16:26:32.617Z,11.30
2018-01-20T16:29:01.546Z,10.03
2018-01-20T16:31:30.776Z,10.67
2018-01-20T16:33:58.344Z,11.40
2018-01-20T16:36:25.941Z,9.07
2018-01-20T16:38:57.639Z,10.23
2018-01-20T16:41:25.345Z,10.67
2018-01-20T16:43:52.832Z,11.23
2018-01-20T16:46:20.286Z,12.80
2018-01-20T16:48:47.760Z,10.93
2018-01-20T16:51:15.236Z,12.37
2018-01-20T16:53:43.466Z,13.10
2018-01-20T16:56:10.934Z,13.13
2018-01-20T16:58:38.397Z,11.73
2018-01-20T17:01:05.852Z,11.03
2018-01-20T17:03:33.322Z,12.00
2018-01-20T17:06:00.787Z,10.03
2018-01-20T17:08:29.016Z,13.27
2018-01-20T17:10:56.511Z,13.90
2018-01-20T17:13:23.978Z,12.60
2018-01-20T17:15:52.201Z,13.03
2018-01-20T17:18:19.687Z,13.23
2018-01-20T17:20:47.162Z,14.83
2018-01-20T17:23:15.439Z,14.50
2018-01-20T17:25:43.670Z,15.40
2018-01-20T17:28:11.166Z,14.83
2018-01-20T17:30:39.393Z,15.07
2018-01-20T17:33:06.856Z,17.83
2018-01-20T17:35:34.324Z,15.70
2018-01-20T17:38:01.795Z,15.10
2018-01-20T17:40:29.270Z,15.30
2018-01-20T17:42:57.531Z,16.40
2018-01-20T17:45:25.008Z,15.60
2018-01-20T17:47:53.258Z,16.30
2018-01-20T17:50:20.718Z,15.43
2018-01-20T17:52:48.212Z,17.20
2018-01-20T17:55:15.754Z,16.23
2018-01-20T17:57:43.994Z,16.57
2018-01-20T18:00:11.555Z,16.17
2018-01-20T18:02:39.081Z,15.70
2018-01-20T18:05:06.571Z,16.30
2018-01-20T18:07:34.047Z,14.70
2018-01-20T18:10:01.522Z,14.50
2018-01-20T18:12:29.751Z,14.07
2018-01-20T18:14:57.207Z,13.83
2018-01-20T18:17:24.695Z,12.53
2018-01-20T18:19:52.919Z,13.73
2018-01-20T18:22:20.396Z,14.70
2018-01-20T18:24:47.866Z,13.00
2018-01-20T18:27:16.098Z,15.13
2018-01-20T18:29:43.561Z,13.90
2018-01-20T18:32:11.028Z,13.90
2018-01-20T18:34:38.497Z,13.90
2018-01-20T18:37:05.950Z,14.03
2018-01-20T18:39:33.425Z,14.47
2018-01-20T18:42:00.897Z,13.80
2018-01-20T18:44:28.364Z,14.00
2018-01-20T18:46:56.599Z,14.90
2018-01-20T18:49:24.067Z,13.70
2018-01-20T18:51:51.538Z,13.93
2018-01-20T18:54:19.022Z,14.00
2018-01-20T18:56:47.250Z,14.27
2018-01-20T18:59:14.739Z,14.50
2018-01-20T19:01:42.983Z,15.97
2018-01-20T19:04:10.442Z,14.20
2018-01-20T19:06:37.901Z,18.80
2018-01-20T19:09:05.419Z,19.47
2018-01-20T19:11:32.870Z,20.30
2018-01-20T19:14:00.322Z,20.80
2018-01-20T19:16:27.802Z,42.63
2018-01-20T19:18:55.258Z,24.97
2018-01-20T19:21:22.720Z,21.30
2018-01-20T19:23:50.208Z,20.57
2018-01-20T19:26:17.674Z,20.90
2018-01-20T19:28:45.926Z,20.07
2018-01-20T19:31:13.434Z,24.90
2018-01-20T19:33:40.887Z,29.40
2018-01-20T19:36:08.349Z,27.33
2018-01-20T19:38:35.851Z,27.67
2018-01-20T19:41:03.326Z,26.77
2018-01-20T19:43:30.795Z,24.90
2018-01-20T19:45:59.039Z,21.37
2018-01-20T19:48:28.023Z,12.90
2018-01-20T19:50:55.498Z,9.50
2018-01-20T19:53:22.980Z,8.27
2018-01-20T19:55:51.199Z,7.63
2018-01-20T19:58:18.678Z,5.67
2018-01-20T20:00:46.160Z,5.50
2018-01-20T20:03:14.403Z,5.00
2018-01-20T20:05:41.888Z,5.20
2018-01-20T20:08:09.350Z,4.53
2018-01-20T20:10:37.576Z,4.70
2018-01-20T20:13:05.055Z,5.00
2018-01-20T20:15:32.550Z,4.43
2018-01-20T20:18:00.769Z,4.70
2018-01-20T20:20:28.243Z,5.27
2018-01-20T20:22:55.698Z,4.93
2018-01-20T20:25:23.150Z,5.20
2018-01-20T20:27:50.638Z,5.30
2018-01-20T20:30:18.862Z,4.43
2018-01-20T20:32:46.341Z,4.13
2018-01-20T20:35:13.814Z,4.27
2018-01-20T20:37:41.286Z,4.97
2018-01-20T20:40:09.506Z,5.70
2018-01-20T20:42:36.978Z,5.20
2018-01-20T20:45:04.452Z,5.33
2018-01-20T20:47:31.923Z,7.03
2018-01-20T20:49:59.398Z,5.73
2018-01-20T20:52:27.636Z,5.37
2018-01-20T20:54:55.118Z,5.70
2018-01-20T20:57:22.562Z,4.87
2018-01-20T20:59:50.084Z,4.60
2018-01-20T21:02:17.532Z,6.40
2018-01-20T21:04:45.017Z,6.13
2018-01-20T21:07:13.278Z,5.80
2018-01-20T21:09:40.726Z,5.33
2018-01-20T21:12:08.182Z,5.80
2018-01-20T21:14:35.695Z,6.77
2018-01-20T21:17:03.914Z,8.50
2018-01-20T21:19:31.382Z,11.53
2018-01-20T21:21:58.858Z,8.33
2018-01-20T21:24:26.334Z,9.60
2018-01-20T21:26:53.823Z,11.40
2018-01-20T21:29:21.299Z,12.10
2018-01-20T21:31:48.751Z,11.10
2018-01-20T21:34:16.255Z,8.83
2018-01-20T21:36:43.723Z,7.30
2018-01-20T21:39:11.178Z,6.60
2018-01-20T21:41:39.407Z,6.90
2018-01-20T21:44:06.874Z,7.97
2018-01-20T21:46:34.370Z,7.63
2018-01-20T21:49:03.280Z,7.00
2018-01-20T21:51:31.006Z,5.80
2018-01-20T21:53:58.766Z,5.47
2018-01-20T21:56:27.257Z,4.80
2018-01-20T21:58:55.164Z,3.63
2018-01-20T22:01:22.891Z,3.70
2018-01-20T22:03:50.674Z,4.10
2018-01-20T22:06:19.127Z,4.23
2018-01-20T22:08:46.702Z,4.30
2018-01-20T22:11:15.065Z,4.80
2018-01-20T22:13:42.526Z,4.40
2018-01-20T22:16:10.231Z,4.80
2018-01-20T22:18:38.084Z,4.70
2018-01-20T22:21:06.530Z,5.13
2018-01-20T22:23:34.030Z,4.47
2018-01-20T22:26:01.487Z,5.17
2018-01-20T22:28:28.939Z,5.50
2018-01-20T22:30:56.419Z,4.43
2018-01-20T22:33:23.888Z,5.00
2018-01-20T22:35:51.340Z,3.53
2018-01-20T22:38:18.810Z,3.77
2018-01-20T22:40:46.272Z,3.50
2018-01-20T22:43:13.846Z,4.57
2018-01-20T22:45:41.311Z,5.10
2018-01-20T22:48:09.535Z,4.77
2018-01-20T22:50:36.986Z,4.47
2018-01-20T22:53:04.462Z,4.17
2018-01-20T22:55:31.917Z,3.77
2018-01-20T22:57:59.375Z,3.50
2018-01-20T23:00:26.847Z,4.37
2018-01-20T23:02:54.303Z,4.80
2018-01-20T23:05:21.755Z,4.10
2018-01-20T23:07:49.228Z,5.00
2018-01-20T23:10:16.701Z,4.83
2018-01-20T23:12:44.927Z,4.73
2018-01-20T23:15:12.409Z,4.50
2018-01-20T23:17:39.873Z,4.20
2018-01-20T23:20:07.326Z,4.00
2018-01-20T23:22:34.799Z,4.80
2018-01-20T23:25:03.027Z,4.77
2018-01-20T23:27:30.489Z,3.93
2018-01-20T23:29:57.950Z,3.27
2018-01-20T23:32:25.413Z,2.60
2018-01-20T23:34:52.875Z,3.00
2018-01-20T23:37:20.342Z,3.40
2018-01-20T23:39:47.806Z,2.90
2018-01-20T23:42:15.267Z,3.57
2018-01-20T23:44:42.740Z,4.03
2018-01-20T23:47:10.960Z,3.13
2018-01-20T23:49:38.419Z,4.33
2018-01-20T23:52:05.883Z,3.80
2018-01-20T23:54:33.337Z,4.00
2018-01-20T23:57:00.801Z,3.27
2018-01-20T23:59:28.283Z,3.97
